Time;durP1;ratioP1;P1;durP2;ratioP2;P2;SDS_P1;SDS_P2;PMS_P1;PMS_P2;Temp;Humidity;BMP_temperature;BMP_pressure;BME280_temperature;BME280_humidity;BME280_pressure;Samples;Min_cycle;Max_cycle;Signal;HPM_P1;HPM_P2
2022/03/03 00:02:17;;;;;;;4.20;0.77;;;21.50;99.90;;;;;;5072969;28;20630;-71
2022/03/03 00:04:45;;;;;;;2.30;0.67;;;21.50;99.90;;;;;;5065293;28;20185;-72
2022/03/03 00:07:14;;;;;;;2.83;0.70;;;21.60;99.90;;;;;;5063516;28;20180;-71
2022/03/03 00:09:41;;;;;;;2.93;1.20;;;21.60;99.90;;;;;;5072127;28;20199;-72
2022/03/03 00:12:09;;;;;;;4.73;0.70;;;21.70;99.90;;;;;;5072336;28;20231;-72
2022/03/03 00:14:37;;;;;;;5.70;0.70;;;21.70;99.90;;;;;;5072730;28;20685;-72
2022/03/03 00:17:05;;;;;;;2.70;0.70;;;21.60;99.90;;;;;;5065314;28;20219;-71
2022/03/03 00:19:33;;;;;;;1.37;0.70;;;21.50;99.90;;;;;;5072183;28;20646;-70
2022/03/03 00:22:01;;;;;;;2.90;0.70;;;21.50;99.90;;;;;;5072981;28;20190;-70
2022/03/03 00:24:28;;;;;;;3.37;0.70;;;21.30;99.90;;;;;;5072474;28;20217;-70
2022/03/03 00:26:56;;;;;;;2.93;0.53;;;21.40;99.90;;;;;;5072558;28;20184;-69
2022/03/03 00:29:24;;;;;;;3.47;0.70;;;21.40;99.90;;;;;;5070965;28;20590;-71
2022/03/03 00:31:52;;;;;;;1.97;1.00;;;21.40;99.90;;;;;;5071705;28;20272;-70
2022/03/03 00:34:20;;;;;;;2.00;0.60;;;21.40;99.90;;;;;;5072622;28;20262;-70
2022/03/03 00:36:47;;;;;;;2.80;0.60;;;21.30;99.90;;;;;;5071964;28;20213;-70
2022/03/03 00:39:15;;;;;;;2.27;0.80;;;21.40;99.90;;;;;;5071934;28;20188;-69
2022/03/03 00:41:43;;;;;;;3.20;0.77;;;21.60;99.90;;;;;;5070706;28;20637;-69
2022/03/03 00:44:11;;;;;;;4.43;1.00;;;21.80;99.90;;;;;;5069454;28;20193;-68
2022/03/03 00:46:39;;;;;;;2.77;0.87;;;21.90;99.90;;;;;;5070100;28;20245;-72
2022/03/03 00:49:07;;;;;;;1.87;0.77;;;22.30;99.90;;;;;;5071089;28;20649;-70
2022/03/03 00:51:35;;;;;;;2.50;0.60;;;22.40;99.90;;;;;;5071328;28;20182;-71
2022/03/03 00:54:03;;;;;;;2.50;1.00;;;22.60;99.90;;;;;;5070816;28;20180;-69
2022/03/03 00:56:31;;;;;;;5.63;1.10;;;23.30;99.90;;;;;;5071337;28;20218;-70
2022/03/03 00:58:59;;;;;;;3.73;1.27;;;23.90;99.90;;;;;;5070076;28;20187;-69
2022/03/03 01:01:26;;;;;;;5.37;1.30;;;24.10;99.90;;;;;;5071734;28;20184;-71
2022/03/03 01:03:54;;;;;;;7.73;1.30;;;24.30;99.90;;;;;;5071865;28;20176;-70
2022/03/03 01:06:22;;;;;;;8.10;1.40;;;24.60;99.90;;;;;;5072064;28;20179;-71
2022/03/03 01:08:50;;;;;;;9.90;1.70;;;24.60;99.90;;;;;;5071871;28;20191;-71
2022/03/03 01:11:18;;;;;;;9.27;1.90;;;25.00;99.90;;;;;;5071742;28;20223;-71
2022/03/03 01:13:45;;;;;;;11.40;1.43;;;25.60;99.90;;;;;;5072017;28;20247;-71
2022/03/03 01:16:14;;;;;;;12.07;2.40;;;25.80;99.90;;;;;;5072191;28;20203;-70
2022/03/03 01:18:42;;;;;;;10.13;2.03;;;25.30;99.90;;;;;;5072197;28;20298;-71
2022/03/03 01:21:10;;;;;;;10.87;1.70;;;24.70;99.90;;;;;;5072809;28;20500;-68
2022/03/03 01:23:38;;;;;;;14.03;2.07;;;24.50;99.90;;;;;;5071920;28;20258;-69
2022/03/03 01:26:05;;;;;;;16.17;2.20;;;24.10;99.90;;;;;;5072126;28;20283;-69
2022/03/03 01:28:33;;;;;;;14.30;3.00;;;23.70;99.90;;;;;;5074705;28;20190;-71
2022/03/03 01:31:02;;;;;;;10.93;2.30;;;23.30;99.90;;;;;;5075762;28;20191;-70
2022/03/03 01:33:30;;;;;;;9.33;1.77;;;23.30;99.90;;;;;;5074746;28;20211;-69
2022/03/03 01:35:58;;;;;;;11.17;2.10;;;23.10;99.90;;;;;;5075851;28;20206;-69
2022/03/03 01:38:25;;;;;;;11.63;1.80;;;23.20;99.90;;;;;;5075536;28;20246;-71
2022/03/03 01:40:53;;;;;;;11.07;1.83;;;23.90;99.90;;;;;;5075295;28;20184;-68
2022/03/03 01:43:21;;;;;;;10.87;1.30;;;24.60;99.90;;;;;;5075299;28;20172;-68
2022/03/03 01:45:49;;;;;;;15.00;2.63;;;24.80;99.90;;;;;;5074299;28;20198;-70
2022/03/03 01:48:16;;;;;;;7.13;1.70;;;25.00;99.90;;;;;;5074715;28;20566;-69
2022/03/03 01:50:45;;;;;;;11.43;1.60;;;25.40;99.90;;;;;;5076333;28;20180;-69
2022/03/03 01:53:13;;;;;;;5.73;1.33;;;25.30;99.90;;;;;;5076328;28;20710;-69
2022/03/03 01:55:41;;;;;;;6.03;1.23;;;25.30;99.90;;;;;;5076102;28;20211;-72
2022/03/03 01:58:09;;;;;;;7.80;1.30;;;25.40;99.90;;;;;;5074323;28;20200;-71
2022/03/03 02:00:37;;;;;;;7.17;1.03;;;25.40;99.90;;;;;;5076319;28;20641;-68
2022/03/03 02:03:06;;;;;;;7.67;1.50;;;25.80;99.90;;;;;;5076172;28;20172;-68
2022/03/03 02:05:34;;;;;;;6.53;1.33;;;26.30;99.90;;;;;;5075952;28;20206;-71
2022/03/03 02:08:02;;;;;;;10.40;1.03;;;26.10;99.90;;;;;;5076139;28;20172;-69
2022/03/03 02:10:31;;;;;;;6.70;1.30;;;26.30;99.90;;;;;;5075441;28;20184;-71
2022/03/03 02:12:59;;;;;;;5.47;0.73;;;26.60;99.90;;;;;;5075947;28;20191;-71
2022/03/03 02:15:27;;;;;;;7.00;1.00;;;27.00;99.90;;;;;;5073919;28;20224;-71
2022/03/03 02:17:55;;;;;;;8.40;2.17;;;26.80;99.90;;;;;;5075796;28;20190;-67
2022/03/03 02:20:27;;;;;;;11.00;1.20;;;26.50;99.90;;;;;;5074585;28;20188;-66
2022/03/03 02:22:57;;;;;;;4.47;0.80;;;26.20;99.90;;;;;;5075762;28;20233;-66
2022/03/03 02:25:26;;;;;;;6.23;1.50;;;26.40;99.90;;;;;;5075754;28;20191;-66
2022/03/03 02:27:54;;;;;;;10.90;2.17;;;26.70;99.90;;;;;;5075735;28;20183;-66
2022/03/03 02:30:22;;;;;;;5.20;1.33;;;26.00;99.90;;;;;;5075634;28;20320;-66
2022/03/03 02:32:50;;;;;;;6.70;1.30;;;25.40;99.90;;;;;;5075501;28;20180;-66
2022/03/03 02:35:17;;;;;;;8.00;1.37;;;24.80;99.90;;;;;;5075604;28;20186;-66
2022/03/03 02:37:46;;;;;;;7.70;2.00;;;24.40;99.90;;;;;;5075823;28;20226;-66
2022/03/03 02:40:20;;;;;;;8.43;1.30;;;24.40;99.90;;;;;;5057768;28;20195;-65
2022/03/03 02:42:49;;;;;;;7.47;1.50;;;24.70;99.90;;;;;;5075517;28;20182;-66
2022/03/03 02:45:18;;;;;;;9.93;1.67;;;24.70;99.90;;;;;;5075110;28;20172;-66
2022/03/03 02:47:47;;;;;;;12.30;2.70;;;24.40;99.90;;;;;;5073674;28;20183;-66
2022/03/03 02:50:18;;;;;;;5.07;1.20;;;24.40;99.90;;;;;;5074007;28;20179;-66
2022/03/03 02:52:46;;;;;;;7.07;1.57;;;24.80;99.90;;;;;;5075183;28;20183;-66
2022/03/03 02:55:13;;;;;;;10.73;1.77;;;25.30;99.90;;;;;;5075198;28;20186;-66
2022/03/03 02:57:56;;;;;;;6.90;1.63;;;25.00;99.90;;;;;;5075310;28;20180;-66
2022/03/03 03:00:31;;;;;;;4.23;1.20;;;24.60;99.90;;;;;;5075191;28;20236;-66
2022/03/03 03:02:58;;;;;;;7.13;2.37;;;24.40;99.90;;;;;;5074980;28;20274;-66
2022/03/03 03:05:26;;;;;;;5.30;1.50;;;24.50;99.90;;;;;;5075153;28;20170;-67
2022/03/03 03:07:54;;;;;;;10.47;1.40;;;24.60;99.90;;;;;;5074815;28;20171;-67
2022/03/03 03:10:23;;;;;;;5.07;1.50;;;25.00;99.90;;;;;;5075240;28;20171;-66
2022/03/03 03:12:50;;;;;;;5.93;1.23;;;25.80;99.90;;;;;;5073388;28;20234;-68
2022/03/03 03:15:18;;;;;;;6.13;1.40;;;26.80;99.90;;;;;;5074977;28;20180;-68
2022/03/03 03:17:46;;;;;;;4.73;1.27;;;27.10;99.90;;;;;;5073463;28;20241;-68
2022/03/03 03:20:14;;;;;;;6.93;1.50;;;26.60;99.90;;;;;;5074999;28;20176;-67
2022/03/03 03:22:42;;;;;;;4.87;0.93;;;26.40;99.90;;;;;;5074667;28;20247;-68
2022/03/03 03:25:13;;;;;;;5.57;1.20;;;25.80;99.90;;;;;;5074775;28;20179;-68
2022/03/03 03:27:44;;;;;;;7.53;1.30;;;25.20;99.90;;;;;;5073286;28;20180;-67
2022/03/03 03:30:13;;;;;;;5.07;1.30;;;24.20;99.90;;;;;;5074556;28;20547;-67
2022/03/03 03:32:41;;;;;;;4.37;1.10;;;23.90;99.90;;;;;;5073237;28;20184;-67
2022/03/03 03:35:09;;;;;;;10.33;1.60;;;23.70;99.90;;;;;;5074465;28;20168;-68
2022/03/03 03:37:37;;;;;;;3.87;1.13;;;23.70;99.90;;;;;;5074469;28;20207;-67
2022/03/03 03:40:07;;;;;;;5.17;0.83;;;23.80;99.90;;;;;;5074612;28;20183;-68
2022/03/03 03:42:35;;;;;;;6.33;1.07;;;23.90;99.90;;;;;;5074431;28;20175;-66
2022/03/03 03:45:03;;;;;;;3.73;0.93;;;24.20;99.90;;;;;;5074442;28;20176;-68
2022/03/03 03:47:31;;;;;;;3.50;0.97;;;24.40;99.90;;;;;;5074542;28;20223;-68
2022/03/03 03:50:02;;;;;;;4.73;1.00;;;24.60;99.90;;;;;;5073641;28;20265;-67
2022/03/03 03:52:30;;;;;;;10.30;1.30;;;24.70;99.90;;;;;;5074477;28;20533;-68
2022/03/03 03:54:59;;;;;;;3.93;0.90;;;24.50;99.90;;;;;;5074397;28;20227;-67
2022/03/03 03:57:26;;;;;;;6.57;1.97;;;24.50;99.90;;;;;;5074169;28;20239;-66
2022/03/03 03:59:54;;;;;;;7.73;1.27;;;24.60;99.90;;;;;;5074170;28;20180;-68
2022/03/03 04:02:22;;;;;;;6.70;1.17;;;24.40;99.90;;;;;;5074216;28;20263;-67
2022/03/03 04:04:50;;;;;;;6.63;1.60;;;24.20;99.90;;;;;;5073975;28;20644;-67
2022/03/03 04:07:18;;;;;;;5.20;1.43;;;24.30;99.90;;;;;;5074039;28;20168;-67
2022/03/03 04:09:46;;;;;;;7.17;1.37;;;24.30;99.90;;;;;;5073854;28;20203;-67
2022/03/03 04:12:14;;;;;;;8.40;1.50;;;24.10;99.90;;;;;;5073743;28;20232;-66
2022/03/03 04:14:41;;;;;;;7.10;1.30;;;24.20;99.90;;;;;;5073992;28;20176;-65
2022/03/03 04:17:09;;;;;;;5.70;1.47;;;24.20;99.90;;;;;;5073720;28;20226;-67
2022/03/03 04:19:37;;;;;;;5.53;1.10;;;24.20;99.90;;;;;;5073935;28;20175;-67
2022/03/03 04:22:05;;;;;;;11.13;2.03;;;24.60;99.90;;;;;;5073695;28;20183;-66
2022/03/03 04:24:32;;;;;;;13.47;1.70;;;24.60;99.90;;;;;;5073673;28;20183;-67
2022/03/03 04:27:00;;;;;;;9.13;1.40;;;24.50;99.90;;;;;;5073347;28;20308;-66
2022/03/03 04:29:28;;;;;;;9.07;1.70;;;24.20;99.90;;;;;;5073631;28;20211;-67
2022/03/03 04:31:57;;;;;;;14.20;2.60;;;24.10;99.90;;;;;;5073697;28;20180;-67
2022/03/03 04:34:26;;;;;;;10.20;2.10;;;24.30;99.90;;;;;;5072726;28;20176;-67
2022/03/03 04:36:54;;;;;;;8.40;1.90;;;24.30;99.90;;;;;;5072501;28;20216;-67
2022/03/03 04:39:22;;;;;;;5.87;1.37;;;24.50;99.90;;;;;;5072855;28;20663;-68
2022/03/03 04:41:50;;;;;;;7.47;1.30;;;24.80;99.90;;;;;;5052152;28;20599;-67
2022/03/03 04:44:18;;;;;;;8.20;1.70;;;24.80;99.90;;;;;;5069649;28;20183;-67
2022/03/03 04:46:46;;;;;;;8.63;1.90;;;24.90;99.90;;;;;;5072934;28;20186;-67
2022/03/03 04:49:14;;;;;;;8.63;1.93;;;24.90;99.90;;;;;;5072807;28;20176;-67
2022/03/03 04:51:41;;;;;;;11.50;2.00;;;25.00;99.90;;;;;;5072842;28;20186;-67
2022/03/03 04:54:10;;;;;;;10.13;1.87;;;24.90;99.90;;;;;;5072631;28;20188;-68
2022/03/03 04:56:40;;;;;;;9.70;2.00;;;25.00;99.90;;;;;;5071891;28;20222;-68
2022/03/03 04:59:07;;;;;;;9.40;2.30;;;24.90;99.90;;;;;;5071582;28;20180;-68
2022/03/03 05:01:35;;;;;;;15.60;2.73;;;24.70;99.90;;;;;;5072838;28;20530;-67
2022/03/03 05:04:03;;;;;;;7.57;1.60;;;24.70;99.90;;;;;;5071724;28;20270;-67
2022/03/03 05:06:31;;;;;;;8.87;1.87;;;24.60;99.90;;;;;;5073003;28;20683;-67
2022/03/03 05:08:58;;;;;;;15.00;2.43;;;24.70;99.90;;;;;;5072601;28;20183;-67
2022/03/03 05:11:26;;;;;;;11.50;1.60;;;24.70;99.90;;;;;;5072605;28;20223;-67
2022/03/03 05:13:54;;;;;;;6.57;1.23;;;24.60;99.90;;;;;;5071453;28;20180;-67
2022/03/03 05:16:22;;;;;;;9.30;1.60;;;24.60;99.90;;;;;;5072931;28;20571;-66
2022/03/03 05:18:50;;;;;;;9.70;1.60;;;24.70;99.90;;;;;;5072637;28;20644;-67
2022/03/03 05:21:17;;;;;;;13.33;2.67;;;25.10;99.90;;;;;;5072982;28;20651;-68
2022/03/03 05:23:45;;;;;;;11.70;1.77;;;25.10;99.90;;;;;;5071159;28;20195;-68
2022/03/03 05:26:13;;;;;;;13.37;1.87;;;24.60;99.90;;;;;;5073077;28;20175;-68
2022/03/03 05:28:42;;;;;;;10.40;2.10;;;24.10;99.90;;;;;;5072314;28;20183;-68
2022/03/03 05:31:10;;;;;;;11.27;2.33;;;23.60;99.90;;;;;;5072838;28;20184;-68
2022/03/03 05:33:38;;;;;;;7.67;1.50;;;23.60;99.90;;;;;;5072864;28;20183;-68
2022/03/03 05:36:08;;;;;;;10.23;2.10;;;23.80;99.90;;;;;;5071591;28;20306;-68
2022/03/03 05:38:38;;;;;;;13.50;2.73;;;24.00;99.90;;;;;;5072712;28;20554;-68
2022/03/03 05:41:06;;;;;;;9.53;1.83;;;24.30;99.90;;;;;;5071730;28;20551;-68
2022/03/03 05:43:35;;;;;;;8.30;1.60;;;24.30;99.90;;;;;;5072684;28;20175;-67
2022/03/03 05:46:04;;;;;;;6.80;1.90;;;24.40;99.90;;;;;;5072778;28;20538;-67
2022/03/03 05:48:32;;;;;;;16.23;2.40;;;24.60;99.90;;;;;;5070890;28;20176;-67
2022/03/03 05:51:00;;;;;;;10.20;2.13;;;24.80;99.90;;;;;;5072518;28;20176;-67
2022/03/03 05:53:28;;;;;;;14.40;2.60;;;25.10;99.90;;;;;;5072266;28;20207;-66
2022/03/03 05:55:58;;;;;;;12.67;2.43;;;24.40;99.90;;;;;;5071231;28;20216;-67
2022/03/03 05:58:41;;;;;;;13.03;2.30;;;23.90;99.90;;;;;;5072316;28;20191;-67
2022/03/03 06:01:11;;;;;;;17.30;2.77;;;23.50;99.90;;;;;;5072638;28;20219;-67
2022/03/03 06:03:45;;;;;;;16.67;2.80;;;23.30;99.90;;;;;;5072264;28;20673;-68
2022/03/03 06:06:31;;;;;;;14.40;2.63;;;23.30;99.90;;;;;;5072247;28;20214;-67
2022/03/03 06:09:03;;;;;;;16.33;3.23;;;23.40;99.90;;;;;;5067209;28;20187;-68
2022/03/03 06:11:32;;;;;;;11.40;2.80;;;23.50;99.90;;;;;;5072394;28;20230;-68
2022/03/03 06:14:09;;;;;;;11.63;2.97;;;23.50;99.90;;;;;;5072865;28;20188;-68
2022/03/03 06:16:39;;;;;;;12.20;2.13;;;23.50;99.90;;;;;;5071380;28;20222;-67
2022/03/03 06:19:07;;;;;;;12.23;2.40;;;23.50;99.90;;;;;;5073405;28;20191;-69
2022/03/03 06:21:34;;;;;;;10.60;2.43;;;23.50;99.90;;;;;;5074860;28;20638;-68
2022/03/03 06:24:03;;;;;;;13.23;2.37;;;23.60;99.90;;;;;;5073380;28;20246;-67
2022/03/03 06:26:30;;;;;;;11.20;2.63;;;23.80;99.90;;;;;;5072517;28;20202;-67
2022/03/03 06:28:58;;;;;;;11.20;2.57;;;23.80;99.90;;;;;;5074629;28;20191;-68
2022/03/03 06:31:27;;;;;;;15.47;2.43;;;23.80;99.90;;;;;;5074741;28;20232;-67
2022/03/03 06:33:55;;;;;;;12.63;2.77;;;23.50;99.90;;;;;;5073608;28;20719;-67
2022/03/03 06:36:23;;;;;;;11.40;2.37;;;23.30;99.90;;;;;;5059913;28;20211;-67
2022/03/03 06:38:51;;;;;;;11.60;2.73;;;23.30;99.90;;;;;;5074528;28;20237;-67
2022/03/03 06:41:18;;;;;;;14.37;2.87;;;23.20;99.90;;;;;;5074106;28;20243;-67
2022/03/03 06:43:46;;;;;;;14.83;2.70;;;23.10;99.90;;;;;;5064483;28;20184;-67
2022/03/03 06:46:18;;;;;;;18.67;3.27;;;23.20;99.90;;;;;;5058279;28;20210;-68
2022/03/03 06:48:47;;;;;;;18.10;2.97;;;23.30;99.90;;;;;;5069573;28;20192;-69
2022/03/03 06:51:17;;;;;;;13.50;2.57;;;23.40;99.90;;;;;;5054171;28;20191;-68
2022/03/03 06:53:46;;;;;;;17.87;3.57;;;23.50;99.90;;;;;;5054395;28;20271;-68
2022/03/03 06:56:14;;;;;;;17.60;3.20;;;23.50;99.90;;;;;;5091163;28;20650;-67
2022/03/03 06:58:42;;;;;;;21.10;3.23;;;23.60;99.90;;;;;;5074348;28;20183;-68
2022/03/03 07:01:14;;;;;;;24.87;4.30;;;23.70;99.90;;;;;;5073801;28;20191;-68
2022/03/03 07:03:43;;;;;;;19.47;2.80;;;23.60;99.90;;;;;;5073395;28;20189;-69
2022/03/03 07:06:13;;;;;;;23.93;4.17;;;23.50;99.90;;;;;;5073344;28;20647;-68
2022/03/03 07:08:41;;;;;;;20.63;3.63;;;23.30;99.90;;;;;;5070973;28;20760;-68
2022/03/03 07:11:10;;;;;;;30.87;4.63;;;23.20;99.90;;;;;;5073603;28;20470;-68
2022/03/03 07:13:40;;;;;;;22.33;4.10;;;23.10;99.90;;;;;;5073798;28;20180;-68
2022/03/03 07:16:26;;;;;;;27.20;4.00;;;23.20;99.90;;;;;;5073570;28;20208;-68
2022/03/03 07:18:56;;;;;;;27.70;5.37;;;23.20;99.90;;;;;;5074092;28;20171;-67
2022/03/03 07:21:59;;;;;;;25.50;5.87;;;23.20;99.90;;;;;;5072649;28;20179;-67
2022/03/03 07:24:37;;;;;;;22.97;4.80;;;23.20;99.90;;;;;;5072258;28;20308;-68
2022/03/03 07:27:59;;;;;;;31.60;5.43;;;23.20;99.90;;;;;;5067626;28;20660;-68
2022/03/03 07:30:27;;;;;;;28.90;6.17;;;23.10;99.90;;;;;;5052808;28;20235;-69
2022/03/03 07:32:58;;;;;;;27.67;5.47;;;23.20;99.90;;;;;;5053764;28;20184;-68
2022/03/03 07:35:27;;;;;;;35.70;5.70;;;23.20;99.90;;;;;;5053384;28;20176;-68
2022/03/03 07:38:02;;;;;;;26.13;5.17;;;23.10;99.90;;;;;;5058161;28;20300;-67
2022/03/03 07:40:32;;;;;;;31.67;5.90;;;23.00;99.90;;;;;;5065698;28;20187;-67
2022/03/03 07:43:00;;;;;;;38.60;6.07;;;22.80;99.90;;;;;;5065727;28;20191;-67
2022/03/03 07:48:56;;;;;;;27.83;5.03;;;22.70;99.90;;;;;;5072778;28;20211;-68
2022/03/03 07:51:25;;;;;;;27.33;5.23;;;22.60;99.90;;;;;;5071775;28;20184;-68
2022/03/03 08:02:17;;;;;;;34.33;6.07;;;22.60;99.90;;;;;;5010843;28;20266;-78
2022/03/03 08:04:45;;;;;;;35.13;5.70;;;22.60;99.90;;;;;;4994429;28;20193;-77
2022/03/03 08:07:29;;;;;;;36.97;6.53;;;22.60;99.90;;;;;;5010419;28;20269;-79
2022/03/03 08:10:02;;;;;;;28.33;6.93;;;22.70;99.90;;;;;;5013869;28;20204;-79
2022/03/03 08:12:32;;;;;;;38.27;6.50;;;22.70;99.90;;;;;;4994004;28;20202;-80
2022/03/03 08:15:04;;;;;;;24.47;5.17;;;22.60;99.90;;;;;;5012965;28;20196;-80
2022/03/03 08:17:34;;;;;;;32.87;5.93;;;22.50;99.90;;;;;;5016805;28;20281;-79
2022/03/03 08:23:30;;;;;;;28.07;5.03;;;22.40;99.90;;;;;;5044745;28;20209;-77
2022/03/03 08:25:59;;;;;;;38.90;6.37;;;22.40;99.90;;;;;;5045416;28;20351;-79
2022/03/03 08:28:33;;;;;;;32.57;6.23;;;22.40;99.90;;;;;;5043742;28;20201;-78
2022/03/03 08:31:06;;;;;;;26.23;5.87;;;22.40;99.90;;;;;;5033040;28;20224;-79
2022/03/03 08:33:54;;;;;;;33.27;5.77;;;22.30;99.90;;;;;;5030728;28;20186;-80
2022/03/03 08:39:50;;;;;;;41.73;7.07;;;22.30;99.90;;;;;;5034672;28;20307;-81
2022/03/03 08:43:06;;;;;;;41.07;6.20;;;22.20;99.90;;;;;;5033552;28;20196;-78
2022/03/03 08:46:21;;;;;;;32.20;5.17;;;22.20;99.90;;;;;;5045896;28;20265;-80
2022/03/03 08:52:13;;;;;;;26.30;4.73;;;22.20;99.90;;;;;;5029851;28;20391;-76
2022/03/03 08:54:40;;;;;;;32.00;6.13;;;22.30;99.90;;;;;;5013517;28;20191;-74
2022/03/03 09:07:13;;;;;;;31.20;5.23;;;22.30;99.90;;;;;;5027068;28;20186;-77
2022/03/03 09:09:42;;;;;;;34.47;6.10;;;22.30;99.90;;;;;;5029861;28;20186;-76
2022/03/03 09:12:10;;;;;;;31.03;5.07;;;22.30;99.90;;;;;;5030126;28;20181;-78
2022/03/03 09:20:11;;;;;;;32.33;4.73;;;22.20;99.90;;;;;;5199357;23;20238;-77
2022/03/03 09:22:39;;;;;;;31.77;5.70;;;22.20;99.90;;;;;;4991611;28;20194;-77
2022/03/03 09:25:08;;;;;;;19.33;4.00;;;22.20;99.90;;;;;;4993111;28;20189;-77
2022/03/03 09:30:58;;;;;;;33.77;4.67;;;22.20;99.90;;;;;;4992327;28;20626;-77
2022/03/03 09:33:26;;;;;;;23.43;4.37;;;22.20;99.90;;;;;;4992855;28;20194;-78
2022/03/03 09:36:02;;;;;;;26.67;4.80;;;22.10;99.90;;;;;;4992839;28;20214;-77
2022/03/03 09:41:53;;;;;;;20.90;3.67;;;22.10;99.90;;;;;;4992323;28;20182;-77
2022/03/03 09:47:42;;;;;;;22.23;3.50;;;22.00;99.90;;;;;;4993278;28;20669;-76
2022/03/03 09:50:10;;;;;;;22.00;3.60;;;22.00;99.90;;;;;;4996169;28;20317;-78
2022/03/03 09:52:45;;;;;;;24.37;3.80;;;21.90;99.90;;;;;;4997741;28;20205;-75
2022/03/03 09:55:13;;;;;;;18.60;4.00;;;21.80;99.90;;;;;;4996322;28;20206;-76
2022/03/03 09:57:41;;;;;;;17.97;2.70;;;21.80;99.90;;;;;;4997689;28;20219;-76
2022/03/03 10:00:12;;;;;;;14.37;2.63;;;21.70;99.90;;;;;;4999826;28;20190;-77
2022/03/03 10:19:54;;;;;;;12.70;2.57;;;21.70;99.90;;;;;;4992404;28;20198;-77
2022/03/03 10:22:47;;;;;;;19.80;3.47;;;21.70;99.90;;;;;;4993345;28;20258;-77
2022/03/03 10:25:32;;;;;;;13.40;2.83;;;21.70;99.90;;;;;;4996869;28;20187;-76
2022/03/03 10:31:22;;;;;;;19.93;2.70;;;21.70;99.90;;;;;;4996282;28;20559;-76
2022/03/03 10:37:52;;;;;;;17.57;2.90;;;21.70;99.90;;;;;;4976445;28;20313;-77
2022/03/03 10:40:23;;;;;;;19.70;2.93;;;21.80;99.90;;;;;;4980520;28;20558;-76
2022/03/03 10:42:50;;;;;;;12.27;2.40;;;21.80;99.90;;;;;;4990985;28;20179;-76
2022/03/03 10:45:21;;;;;;;16.17;2.80;;;21.80;99.90;;;;;;4985804;28;20188;-76
2022/03/03 10:48:08;;;;;;;15.17;2.50;;;21.80;99.90;;;;;;4986307;28;20194;-77
2022/03/03 10:50:46;;;;;;;17.83;2.80;;;21.80;99.90;;;;;;4981008;28;20612;-77
2022/03/03 10:53:20;;;;;;;15.30;2.67;;;21.80;99.90;;;;;;4985257;28;20178;-75
2022/03/03 21:55:47;;;;;;;17.07;2.83;;;22.40;99.90;;;;;;4916296;29;20244;-69
2022/03/03 21:58:15;;;;;;;14.30;2.20;;;22.40;99.90;;;;;;4920226;29;20185;-69
2022/03/03 22:00:42;;;;;;;13.50;2.40;;;22.40;99.90;;;;;;4920016;29;20181;-70
2022/03/03 22:03:11;;;;;;;13.90;2.00;;;22.40;99.90;;;;;;4920253;29;20187;-71
2022/03/03 22:05:40;;;;;;;15.13;2.73;;;22.50;99.90;;;;;;4920252;29;20177;-70
2022/03/03 22:08:09;;;;;;;16.13;3.40;;;22.60;99.90;;;;;;4919743;29;20177;-71
2022/03/03 22:10:45;;;;;;;15.43;2.87;;;22.70;99.90;;;;;;4920229;29;20705;-70
2022/03/03 22:13:15;;;;;;;14.60;3.17;;;22.90;99.90;;;;;;4918799;29;20236;-72
2022/03/03 22:15:45;;;;;;;17.40;2.67;;;23.20;99.90;;;;;;4919783;29;20619;-71
2022/03/03 22:18:14;;;;;;;13.57;2.60;;;23.20;99.90;;;;;;4918890;29;20186;-70
2022/03/03 22:20:43;;;;;;;17.67;3.07;;;23.10;99.90;;;;;;4919846;29;20189;-70
2022/03/03 22:23:10;;;;;;;13.27;2.33;;;23.10;99.90;;;;;;4919126;29;20241;-69
2022/03/03 22:25:39;;;;;;;16.07;2.50;;;23.20;99.90;;;;;;4920131;29;20191;-69
2022/03/03 22:28:06;;;;;;;18.53;2.77;;;23.10;99.90;;;;;;4917458;29;20199;-70
2022/03/03 22:30:34;;;;;;;13.30;2.60;;;23.00;99.90;;;;;;4919599;29;20188;-70
2022/03/03 22:33:02;;;;;;;13.67;2.67;;;23.10;99.90;;;;;;4919217;29;20189;-70
2022/03/03 22:35:31;;;;;;;12.93;2.50;;;23.20;99.90;;;;;;4919188;29;20197;-71
2022/03/03 22:38:00;;;;;;;14.07;2.00;;;23.30;99.90;;;;;;4918794;29;20308;-71
2022/03/03 22:40:28;;;;;;;10.83;1.97;;;23.10;99.90;;;;;;4919235;29;20186;-70
2022/03/03 22:42:56;;;;;;;6.40;1.60;;;23.10;99.90;;;;;;4919677;29;20620;-71
2022/03/03 22:45:24;;;;;;;11.27;2.03;;;23.00;99.90;;;;;;4919545;29;20189;-69
2022/03/03 22:47:52;;;;;;;10.33;1.50;;;23.00;99.90;;;;;;4918984;29;20193;-70
2022/03/03 22:53:06;;;;;;;7.07;2.03;;;23.00;99.90;;;;;;4918890;29;20279;-69
2022/03/03 22:55:34;;;;;;;10.03;2.03;;;23.10;99.90;;;;;;4916463;29;20269;-72
2022/03/03 22:58:02;;;;;;;13.73;1.67;;;23.10;99.90;;;;;;4917563;29;20291;-72
2022/03/03 23:00:46;;;;;;;9.60;1.50;;;23.10;99.90;;;;;;4918704;29;20185;-71
2022/03/03 23:06:00;;;;;;;14.53;2.40;;;23.10;99.90;;;;;;4918364;29;20248;-71
2022/03/03 23:08:28;;;;;;;10.70;1.90;;;23.30;99.90;;;;;;4917836;29;20552;-69
2022/03/03 23:10:56;;;;;;;12.97;1.87;;;23.80;99.90;;;;;;4919087;29;20181;-71
2022/03/03 23:13:24;;;;;;;7.00;1.50;;;23.90;99.90;;;;;;4915468;29;20220;-70
2022/03/03 23:15:53;;;;;;;10.20;1.87;;;24.20;99.90;;;;;;4917851;29;20245;-70
2022/03/03 23:18:20;;;;;;;5.27;1.13;;;24.10;99.90;;;;;;4917544;29;20185;-71
2022/03/03 23:20:49;;;;;;;11.47;1.50;;;24.00;99.90;;;;;;4917970;29;20209;-70
2022/03/03 23:23:17;;;;;;;10.03;1.27;;;23.90;99.90;;;;;;4918136;29;20244;-70
2022/03/03 23:25:45;;;;;;;9.93;2.03;;;24.10;99.90;;;;;;4915133;29;20185;-69
2022/03/03 23:28:13;;;;;;;11.20;1.67;;;24.80;99.90;;;;;;4901324;29;20182;-69
2022/03/03 23:30:40;;;;;;;9.07;2.10;;;25.20;99.90;;;;;;4898483;29;20288;-68
2022/03/03 23:33:10;;;;;;;13.40;1.60;;;25.20;99.90;;;;;;4898477;29;20182;-68
2022/03/03 23:35:38;;;;;;;8.70;2.07;;;25.00;99.90;;;;;;4912247;29;20178;-68
2022/03/03 23:38:07;;;;;;;7.27;1.80;;;24.40;99.90;;;;;;4915844;29;20256;-69
2022/03/03 23:40:35;;;;;;;7.20;1.60;;;24.20;99.90;;;;;;4917227;29;20593;-70
2022/03/03 23:43:03;;;;;;;10.90;1.60;;;24.10;99.90;;;;;;4916986;29;20189;-71
2022/03/03 23:45:30;;;;;;;9.17;1.63;;;24.00;99.90;;;;;;4917016;29;20265;-70
2022/03/03 23:47:59;;;;;;;7.67;1.53;;;23.80;99.90;;;;;;4916571;29;20201;-70
2022/03/03 23:50:27;;;;;;;8.27;1.43;;;23.90;99.90;;;;;;4916348;29;20248;-70
2022/03/03 23:52:54;;;;;;;11.77;1.93;;;23.90;99.90;;;;;;4917004;29;20200;-70
2022/03/03 23:55:22;;;;;;;11.10;2.27;;;24.00;99.90;;;;;;4916745;29;20216;-69
2022/03/03 23:57:50;;;;;;;6.40;1.30;;;24.20;99.90;;;;;;4916362;29;20794;-70
